createdAt,value
2022-07-29T00:02:29.188Z,4.33
2022-07-29T00:04:56.092Z,3.90
2022-07-29T00:07:22.790Z,4.63
2022-07-29T00:09:51.709Z,3.50
2022-07-29T00:12:25.612Z,3.70
2022-07-29T00:14:54.344Z,3.70
2022-07-29T00:17:21.085Z,3.90
2022-07-29T00:19:48.311Z,3.67
2022-07-29T00:22:15.089Z,3.67
2022-07-29T00:24:41.870Z,3.33
2022-07-29T00:27:08.625Z,3.20
2022-07-29T00:29:35.627Z,4.73
2022-07-29T00:32:03.440Z,3.30
2022-07-29T00:34:49.330Z,3.83
2022-07-29T00:37:16.066Z,4.93
2022-07-29T00:39:42.737Z,3.80
2022-07-29T00:42:10.452Z,4.20
2022-07-29T00:44:38.732Z,3.90
2022-07-29T00:47:05.844Z,4.80
2022-07-29T00:49:33.009Z,4.33
2022-07-29T00:52:01.280Z,4.33
2022-07-29T00:54:28.444Z,4.60
2022-07-29T00:56:55.561Z,4.33
2022-07-29T00:59:22.326Z,4.87
2022-07-29T01:01:49.576Z,6.13
2022-07-29T01:04:16.618Z,4.83
2022-07-29T01:06:45.161Z,5.33
2022-07-29T01:09:12.009Z,5.50
2022-07-29T01:11:38.713Z,5.40
2022-07-29T01:14:06.002Z,4.60
2022-07-29T01:16:33.607Z,5.00
2022-07-29T01:19:14.090Z,4.60
2022-07-29T01:21:56.246Z,4.40
2022-07-29T01:24:51.247Z,4.30
2022-07-29T01:27:33.310Z,3.83
2022-07-29T01:30:00.644Z,4.30
2022-07-29T01:32:30.317Z,4.30
2022-07-29T01:35:10.128Z,4.50
2022-07-29T01:38:00.943Z,5.20
2022-07-29T01:40:50.724Z,4.80
2022-07-29T01:43:22.031Z,4.60
2022-07-29T01:46:01.370Z,4.87
2022-07-29T01:48:48.331Z,4.77
2022-07-29T01:51:25.253Z,5.03
2022-07-29T01:53:57.409Z,5.40
2022-07-29T01:56:24.553Z,5.60
2022-07-29T01:58:51.320Z,6.07
2022-07-29T02:01:20.221Z,7.30
2022-07-29T02:03:47.178Z,5.70
2022-07-29T02:06:14.506Z,5.97
2022-07-29T02:08:41.638Z,6.10
2022-07-29T02:11:08.840Z,5.87
2022-07-29T02:13:36.576Z,5.90
2022-07-29T02:16:04.043Z,5.90
2022-07-29T02:18:31.987Z,5.73
2022-07-29T02:20:59.850Z,6.17
2022-07-29T02:23:26.580Z,6.80
2022-07-29T02:25:54.970Z,6.57
2022-07-29T02:28:22.340Z,6.60
2022-07-29T02:30:49.139Z,7.17
2022-07-29T02:33:17.332Z,7.00
2022-07-29T02:35:44.544Z,7.20
2022-07-29T02:38:31.516Z,6.20
2022-07-29T02:40:58.719Z,6.90
2022-07-29T02:43:25.835Z,7.00
2022-07-29T02:45:53.806Z,7.00
2022-07-29T02:48:21.048Z,6.43
2022-07-29T02:50:51.294Z,5.73
2022-07-29T02:53:19.800Z,6.70
2022-07-29T02:55:51.949Z,6.07
2022-07-29T02:58:34.627Z,6.10
2022-07-29T03:01:03.980Z,6.23
2022-07-29T03:03:36.939Z,5.60
2022-07-29T03:06:04.246Z,6.87
2022-07-29T03:08:32.031Z,5.80
2022-07-29T03:10:58.971Z,5.87
2022-07-29T03:13:26.129Z,6.33
2022-07-29T03:15:52.899Z,7.00
2022-07-29T03:18:20.051Z,5.90
2022-07-29T03:20:47.148Z,6.50
2022-07-29T03:23:13.888Z,5.50
2022-07-29T03:25:40.615Z,6.23
2022-07-29T03:28:07.353Z,5.93
2022-07-29T03:30:34.453Z,5.50
2022-07-29T03:33:01.928Z,6.30
2022-07-29T03:35:29.315Z,6.33
2022-07-29T03:37:56.034Z,5.83
2022-07-29T03:40:28.961Z,5.50
2022-07-29T03:42:56.201Z,5.80
2022-07-29T03:45:22.943Z,4.30
2022-07-29T03:47:59.921Z,4.40
2022-07-29T03:50:27.590Z,6.17
2022-07-29T03:52:54.306Z,6.00
2022-07-29T03:55:21.067Z,6.13
2022-07-29T03:57:48.303Z,6.23
2022-07-29T04:00:16.403Z,5.70
2022-07-29T04:02:47.861Z,5.73
2022-07-29T04:05:15.127Z,6.43
2022-07-29T04:07:42.591Z,5.70
2022-07-29T04:10:09.891Z,5.93
2022-07-29T04:12:36.651Z,5.70
2022-07-29T04:15:06.746Z,5.90
2022-07-29T04:17:33.446Z,5.83
2022-07-29T04:20:00.221Z,5.50
2022-07-29T04:22:26.953Z,5.90
2022-07-29T04:24:54.284Z,5.73
2022-07-29T04:27:21.426Z,6.80
2022-07-29T04:29:56.120Z,6.03
2022-07-29T04:32:24.369Z,6.70
2022-07-29T04:34:51.570Z,5.53
2022-07-29T04:37:18.714Z,6.40
2022-07-29T04:39:45.409Z,6.60
2022-07-29T04:42:12.555Z,6.50
2022-07-29T04:44:43.052Z,6.77
2022-07-29T04:47:10.054Z,6.77
2022-07-29T04:49:39.549Z,6.17
2022-07-29T04:52:07.080Z,5.70
2022-07-29T04:54:34.497Z,5.93
2022-07-29T04:57:01.244Z,4.53
2022-07-29T04:59:28.235Z,5.37
2022-07-29T05:01:55.199Z,4.50
2022-07-29T05:04:21.995Z,4.60
2022-07-29T05:06:49.377Z,5.93
2022-07-29T05:09:16.558Z,4.43
2022-07-29T05:11:43.748Z,4.80
2022-07-29T05:14:11.267Z,4.87
2022-07-29T05:16:40.523Z,3.87
2022-07-29T05:19:10.921Z,4.47
2022-07-29T05:21:41.227Z,4.00
2022-07-29T05:24:08.118Z,2.90
2022-07-29T05:26:35.323Z,3.40
2022-07-29T05:29:02.111Z,3.60
2022-07-29T05:31:28.874Z,4.10
2022-07-29T05:33:55.677Z,4.30
2022-07-29T05:36:22.516Z,3.07
2022-07-29T05:38:49.727Z,3.60
2022-07-29T05:41:16.891Z,3.83
2022-07-29T05:43:43.571Z,3.70
2022-07-29T05:46:10.364Z,5.30
2022-07-29T05:48:37.725Z,4.60
2022-07-29T05:51:04.469Z,3.80
2022-07-29T05:53:31.281Z,4.70
2022-07-29T05:55:57.994Z,4.57
2022-07-29T05:58:25.111Z,4.73
2022-07-29T06:00:51.881Z,4.30
2022-07-29T06:03:18.608Z,5.00
2022-07-29T06:05:45.455Z,4.20
2022-07-29T06:08:12.145Z,4.57
2022-07-29T06:10:39.212Z,4.57
2022-07-29T06:13:06.259Z,5.97
2022-07-29T06:15:33.163Z,4.00
2022-07-29T06:18:01.648Z,4.30
2022-07-29T06:20:32.380Z,4.40
2022-07-29T06:23:01.919Z,4.90
2022-07-29T06:25:31.821Z,4.83
2022-07-29T06:27:58.648Z,4.77
2022-07-29T06:30:25.398Z,4.90
2022-07-29T06:32:52.360Z,4.80
2022-07-29T06:35:39.665Z,5.00
2022-07-29T06:38:25.146Z,4.30
2022-07-29T06:41:03.599Z,5.93
2022-07-29T06:43:36.145Z,4.20
2022-07-29T06:46:21.012Z,5.20
2022-07-29T06:48:51.100Z,4.23
2022-07-29T06:51:22.195Z,4.80
2022-07-29T06:54:01.653Z,4.60
2022-07-29T06:56:39.226Z,3.70
2022-07-29T06:59:07.608Z,5.03
2022-07-29T07:01:34.475Z,4.50
2022-07-29T07:04:01.313Z,4.00
2022-07-29T07:06:28.441Z,4.50
2022-07-29T07:08:55.208Z,4.27
2022-07-29T07:11:21.924Z,3.50
2022-07-29T07:13:49.112Z,3.60
2022-07-29T07:16:20.105Z,3.60
2022-07-29T07:18:46.824Z,3.10
2022-07-29T07:21:19.070Z,3.03
2022-07-29T07:23:46.707Z,3.10
2022-07-29T07:26:13.434Z,2.63
2022-07-29T07:28:40.119Z,3.30
2022-07-29T07:31:06.847Z,3.57
2022-07-29T07:33:33.523Z,3.10
2022-07-29T07:36:00.230Z,3.70
2022-07-29T07:38:26.901Z,3.10
2022-07-29T07:40:53.600Z,3.80
2022-07-29T07:43:20.398Z,2.90
2022-07-29T07:45:47.165Z,3.47
2022-07-29T07:48:14.059Z,3.50
2022-07-29T07:50:40.801Z,2.93
2022-07-29T07:53:07.662Z,3.13
2022-07-29T07:55:53.569Z,3.67
2022-07-29T07:58:21.037Z,3.37
2022-07-29T08:00:48.180Z,2.80
2022-07-29T08:03:17.183Z,2.47
2022-07-29T08:05:44.214Z,3.53
2022-07-29T08:08:10.923Z,3.23
2022-07-29T08:10:56.302Z,2.97
2022-07-29T08:13:28.678Z,3.07
2022-07-29T08:15:58.914Z,3.07
2022-07-29T08:18:26.807Z,3.60
2022-07-29T08:20:53.627Z,4.10
2022-07-29T08:23:20.859Z,3.40
2022-07-29T08:25:50.294Z,2.97
2022-07-29T08:28:17.685Z,3.30
2022-07-29T08:30:44.462Z,3.93
2022-07-29T08:33:11.614Z,3.23
2022-07-29T08:35:39.346Z,2.90
2022-07-29T08:38:06.063Z,4.17
2022-07-29T08:40:32.916Z,4.23
2022-07-29T08:43:04.660Z,3.87
2022-07-29T08:45:42.430Z,4.00
2022-07-29T08:48:14.796Z,4.10
2022-07-29T08:50:42.529Z,4.10
2022-07-29T08:53:17.592Z,4.60
2022-07-29T08:55:44.990Z,3.90
2022-07-29T08:58:11.740Z,3.80
2022-07-29T09:00:44.253Z,3.70
2022-07-29T09:03:13.849Z,4.20
2022-07-29T09:05:47.524Z,3.87
2022-07-29T09:08:15.246Z,4.20
2022-07-29T09:10:41.967Z,4.70
2022-07-29T09:13:08.774Z,3.93
2022-07-29T09:15:35.598Z,3.90
2022-07-29T09:18:03.175Z,4.00
2022-07-29T09:20:58.954Z,3.67
2022-07-29T09:23:26.085Z,3.60
2022-07-29T09:25:52.838Z,4.20
2022-07-29T09:28:19.544Z,4.03
2022-07-29T09:30:57.062Z,4.00
2022-07-29T09:33:24.284Z,3.50
2022-07-29T09:36:04.754Z,3.40
2022-07-29T09:38:33.276Z,3.37
2022-07-29T09:41:05.481Z,3.13
2022-07-29T09:43:33.019Z,2.90
2022-07-29T09:46:13.066Z,4.63
2022-07-29T09:48:39.938Z,3.57
2022-07-29T09:51:07.438Z,3.47
2022-07-29T09:53:38.678Z,4.53
2022-07-29T09:56:05.917Z,3.60
2022-07-29T09:58:34.633Z,3.67
2022-07-29T10:01:01.417Z,4.00
2022-07-29T10:03:28.306Z,4.07
2022-07-29T10:06:11.504Z,3.90
2022-07-29T10:08:38.593Z,4.27
2022-07-29T10:11:15.661Z,4.27
2022-07-29T10:13:43.414Z,4.43
2022-07-29T10:16:10.409Z,4.40
2022-07-29T10:18:41.636Z,3.90
2022-07-29T10:21:08.324Z,4.23
2022-07-29T10:23:46.472Z,3.90
2022-07-29T10:26:14.024Z,4.73
2022-07-29T10:28:40.749Z,3.90
2022-07-29T10:31:09.221Z,4.13
2022-07-29T10:34:04.533Z,4.47
2022-07-29T10:37:00.537Z,4.70
2022-07-29T10:39:41.803Z,4.40
2022-07-29T10:42:14.683Z,4.50
2022-07-29T10:44:46.693Z,4.53
2022-07-29T10:47:22.008Z,5.17
2022-07-29T10:50:03.754Z,4.43
2022-07-29T10:52:55.449Z,4.50
2022-07-29T10:55:49.389Z,4.97
2022-07-29T10:58:17.843Z,4.50
2022-07-29T11:00:45.760Z,4.67
2022-07-29T11:03:50.711Z,4.93
2022-07-29T11:06:26.835Z,4.80
2022-07-29T11:09:25.878Z,4.60
2022-07-29T11:12:02.416Z,5.23
2022-07-29T11:14:55.689Z,4.83
2022-07-29T11:17:23.429Z,4.57
2022-07-29T11:19:52.264Z,5.27
2022-07-29T11:22:34.862Z,4.73
2022-07-29T11:25:17.716Z,5.40
2022-07-29T11:27:45.870Z,4.60
2022-07-29T11:30:13.139Z,4.57
2022-07-29T11:32:44.982Z,4.73
2022-07-29T11:35:17.382Z,4.60
2022-07-29T11:37:52.838Z,4.10
2022-07-29T11:40:24.516Z,4.77
2022-07-29T11:42:52.233Z,4.23
2022-07-29T11:45:43.337Z,4.30
2022-07-29T11:48:29.937Z,4.57
2022-07-29T11:50:59.203Z,3.90
2022-07-29T11:53:25.916Z,4.50
2022-07-29T11:55:56.294Z,4.20
2022-07-29T11:58:26.256Z,4.87
2022-07-29T12:01:15.187Z,3.43
2022-07-29T12:03:43.715Z,3.90
2022-07-29T12:06:15.221Z,3.90
2022-07-29T12:08:43.619Z,3.80
2022-07-29T12:11:22.832Z,3.07
2022-07-29T12:13:51.831Z,4.47
2022-07-29T12:16:26.165Z,3.87
2022-07-29T12:19:03.741Z,3.03
2022-07-29T12:21:56.297Z,4.17
2022-07-29T12:24:27.005Z,3.20
2022-07-29T12:26:57.977Z,4.50
2022-07-29T12:29:33.628Z,4.40
2022-07-29T12:32:02.201Z,3.43
2022-07-29T12:34:29.049Z,3.50
2022-07-29T12:36:56.565Z,3.87
2022-07-29T12:39:23.330Z,3.80
2022-07-29T12:41:50.050Z,3.20
2022-07-29T12:44:16.814Z,4.10
2022-07-29T12:46:43.637Z,3.43
2022-07-29T12:49:10.559Z,4.30
2022-07-29T12:51:38.868Z,3.90
2022-07-29T12:54:11.235Z,4.00
2022-07-29T12:56:43.719Z,4.60
2022-07-29T12:59:22.296Z,3.77
2022-07-29T13:01:50.438Z,3.60
2022-07-29T13:04:30.743Z,3.90
2022-07-29T13:07:01.334Z,3.43
2022-07-29T13:09:44.621Z,3.70
2022-07-29T13:12:13.134Z,4.23
2022-07-29T13:14:43.685Z,3.87
2022-07-29T13:17:12.148Z,3.60
2022-07-29T13:19:43.484Z,4.03
2022-07-29T13:22:11.285Z,3.77
2022-07-29T13:24:53.272Z,3.50
2022-07-29T13:27:21.239Z,3.17
2022-07-29T13:29:48.147Z,3.17
2022-07-29T13:32:14.915Z,3.77
2022-07-29T13:34:41.892Z,3.80
2022-07-29T13:37:08.625Z,3.93
2022-07-29T13:39:35.428Z,3.43
2022-07-29T13:42:02.170Z,3.60
2022-07-29T13:44:29.299Z,3.20
2022-07-29T13:46:59.791Z,4.17
2022-07-29T13:49:27.084Z,3.47
2022-07-29T13:51:54.082Z,4.03
2022-07-29T13:54:23.288Z,3.23
2022-07-29T13:56:53.368Z,3.20
2022-07-29T13:59:20.508Z,3.50
2022-07-29T14:01:47.324Z,3.60
2022-07-29T14:04:14.060Z,3.80
2022-07-29T14:06:40.847Z,3.17
2022-07-29T14:09:09.443Z,3.00
2022-07-29T14:11:36.714Z,2.37
2022-07-29T14:14:03.520Z,3.17
2022-07-29T14:16:30.273Z,3.47
2022-07-29T14:18:59.645Z,3.00
2022-07-29T14:21:26.316Z,3.07
2022-07-29T14:23:53.802Z,2.77
2022-07-29T14:26:24.070Z,2.60
2022-07-29T14:28:51.166Z,2.33
2022-07-29T14:31:17.958Z,2.50
2022-07-29T14:33:46.269Z,2.53
2022-07-29T14:36:16.133Z,2.60
2022-07-29T14:38:43.448Z,2.67
2022-07-29T14:41:10.108Z,2.60
2022-07-29T14:43:36.878Z,2.70
2022-07-29T14:46:08.058Z,2.70
2022-07-29T14:48:35.131Z,3.00
2022-07-29T14:51:04.667Z,3.30
2022-07-29T14:53:31.715Z,3.00
2022-07-29T14:56:06.241Z,3.50
2022-07-29T14:58:50.154Z,2.80
2022-07-29T15:01:20.707Z,3.40
2022-07-29T15:03:47.500Z,3.60
2022-07-29T15:06:14.212Z,4.53
2022-07-29T15:08:40.999Z,3.40
2022-07-29T15:11:07.719Z,3.87
2022-07-29T15:13:34.776Z,4.63
2022-07-29T15:16:01.474Z,4.27
2022-07-29T15:18:28.208Z,3.77
2022-07-29T15:20:54.903Z,3.57
2022-07-29T15:23:21.657Z,4.10
2022-07-29T15:25:48.380Z,4.17
2022-07-29T15:28:15.106Z,4.00
2022-07-29T15:30:44.856Z,4.13
2022-07-29T15:33:11.751Z,3.70
2022-07-29T15:35:40.071Z,3.03
2022-07-29T15:38:07.624Z,3.67
2022-07-29T15:40:34.316Z,2.67
2022-07-29T15:43:06.527Z,3.70
2022-07-29T15:45:40.894Z,3.60
2022-07-29T15:48:08.587Z,3.63
2022-07-29T15:50:35.748Z,3.70
2022-07-29T15:53:02.599Z,3.53
2022-07-29T15:55:29.379Z,3.73
2022-07-29T15:58:00.248Z,3.20
2022-07-29T16:00:27.435Z,3.20
2022-07-29T16:02:54.125Z,3.20
2022-07-29T16:05:20.866Z,3.10
2022-07-29T16:07:47.706Z,2.63
2022-07-29T16:10:14.371Z,2.97
2022-07-29T16:12:41.054Z,2.70
2022-07-29T16:15:10.469Z,2.60
2022-07-29T16:17:38.115Z,2.27
2022-07-29T16:20:06.153Z,2.93
2022-07-29T16:22:32.854Z,2.27
2022-07-29T16:24:59.635Z,2.13
2022-07-29T16:27:31.290Z,2.27
2022-07-29T16:30:02.906Z,2.10
2022-07-29T16:32:30.743Z,2.27
2022-07-29T16:34:58.537Z,2.03
2022-07-29T16:37:25.216Z,1.90
2022-07-29T16:39:55.981Z,2.50
2022-07-29T16:42:44.302Z,2.43
2022-07-29T16:45:10.056Z,3.43
2022-07-29T16:47:37.357Z,4.00
2022-07-29T16:50:05.083Z,3.27
2022-07-29T16:52:32.254Z,3.83
2022-07-29T16:54:59.365Z,3.60
2022-07-29T16:57:26.134Z,3.23
2022-07-29T16:59:53.229Z,3.30
2022-07-29T17:02:20.052Z,3.20
2022-07-29T17:04:47.232Z,3.20
2022-07-29T17:07:14.378Z,3.67
2022-07-29T17:09:41.322Z,3.63
2022-07-29T17:12:08.381Z,3.67
2022-07-29T17:14:35.088Z,3.00
2022-07-29T17:17:03.176Z,3.80
2022-07-29T17:19:31.308Z,3.10
2022-07-29T17:22:05.046Z,3.73
2022-07-29T17:24:36.168Z,3.43
2022-07-29T17:27:02.990Z,3.80
2022-07-29T17:29:29.745Z,3.00
2022-07-29T17:31:59.404Z,2.43
2022-07-29T17:34:26.260Z,2.50
2022-07-29T17:36:53.510Z,2.97
2022-07-29T17:39:20.630Z,2.70
2022-07-29T17:41:47.470Z,2.60
2022-07-29T17:44:14.314Z,2.03
2022-07-29T17:46:41.283Z,2.00
2022-07-29T17:49:08.231Z,2.33
2022-07-29T17:51:35.020Z,2.20
2022-07-29T17:54:02.282Z,2.30
2022-07-29T17:56:29.408Z,2.50
2022-07-29T17:58:57.026Z,2.57
2022-07-29T18:01:23.859Z,2.10
2022-07-29T18:03:50.715Z,1.90
2022-07-29T18:06:18.085Z,1.93
2022-07-29T18:08:47.530Z,2.20
2022-07-29T18:11:15.198Z,2.40
2022-07-29T18:13:42.220Z,2.10
2022-07-29T18:16:11.961Z,2.83
2022-07-29T18:18:38.769Z,2.83
2022-07-29T18:21:05.957Z,2.10
2022-07-29T18:23:32.849Z,2.60
2022-07-29T18:26:00.097Z,2.30
2022-07-29T18:28:26.858Z,2.10
2022-07-29T18:30:53.725Z,2.67
2022-07-29T18:33:22.031Z,2.80
2022-07-29T18:35:50.782Z,2.40
2022-07-29T18:38:18.019Z,2.70
2022-07-29T18:40:45.882Z,2.23
2022-07-29T18:43:13.661Z,3.00
2022-07-29T18:45:42.512Z,4.07
2022-07-29T18:48:12.842Z,3.13
2022-07-29T18:50:40.598Z,3.43
2022-07-29T18:53:07.433Z,2.87
2022-07-29T18:55:34.654Z,3.57
2022-07-29T18:58:01.865Z,3.13
2022-07-29T19:00:29.082Z,3.27
2022-07-29T19:02:56.761Z,3.60
2022-07-29T19:05:23.708Z,4.07
2022-07-29T19:07:50.633Z,4.00
2022-07-29T19:10:17.950Z,4.00
2022-07-29T19:12:45.259Z,4.17
2022-07-29T19:15:12.606Z,4.00
2022-07-29T19:17:46.891Z,3.57
2022-07-29T19:20:14.424Z,3.67
2022-07-29T19:22:41.795Z,4.03
2022-07-29T19:25:09.889Z,3.93
2022-07-29T19:27:36.707Z,4.33
2022-07-29T19:30:06.138Z,4.80
2022-07-29T19:32:33.070Z,4.43
2022-07-29T19:35:18.325Z,4.10
2022-07-29T19:37:45.271Z,4.50
2022-07-29T19:40:13.171Z,4.70
2022-07-29T19:42:39.955Z,4.63
2022-07-29T19:45:07.105Z,4.40
2022-07-29T19:47:33.999Z,5.10
2022-07-29T19:50:01.023Z,4.83
2022-07-29T19:52:28.161Z,5.37
2022-07-29T19:54:55.299Z,5.37
2022-07-29T19:57:22.459Z,5.10
2022-07-29T19:59:51.350Z,6.00
2022-07-29T20:02:18.626Z,6.00
2022-07-29T20:04:45.592Z,5.20
2022-07-29T20:07:13.075Z,6.10
2022-07-29T20:09:40.965Z,5.40
2022-07-29T20:12:08.962Z,6.33
2022-07-29T20:14:35.838Z,5.50
2022-07-29T20:17:02.855Z,6.13
2022-07-29T20:19:30.865Z,7.50
2022-07-29T20:21:58.149Z,6.80
2022-07-29T20:24:25.679Z,6.73
2022-07-29T20:26:52.543Z,6.27
2022-07-29T20:29:19.963Z,6.50
2022-07-29T20:31:52.909Z,7.80
2022-07-29T20:34:23.524Z,6.57
2022-07-29T20:36:50.395Z,7.53
2022-07-29T20:39:17.161Z,7.07
2022-07-29T20:41:44.350Z,7.60
2022-07-29T20:44:11.570Z,7.40
2022-07-29T20:46:39.427Z,8.13
2022-07-29T20:49:06.422Z,7.70
2022-07-29T20:51:33.279Z,7.73
2022-07-29T20:54:10.986Z,8.00
2022-07-29T20:56:38.178Z,6.67
2022-07-29T20:59:05.076Z,6.30
2022-07-29T21:01:32.268Z,6.77
2022-07-29T21:03:59.571Z,8.63
2022-07-29T21:06:26.743Z,7.43
2022-07-29T21:08:55.746Z,7.10
2022-07-29T21:11:44.519Z,8.27
2022-07-29T21:14:09.657Z,7.70
2022-07-29T21:16:38.689Z,7.83
2022-07-29T21:19:05.409Z,7.80
2022-07-29T21:21:32.979Z,7.63
2022-07-29T21:24:02.534Z,8.40
2022-07-29T21:26:29.798Z,6.97
2022-07-29T21:28:57.069Z,8.27
2022-07-29T21:31:24.340Z,7.50
2022-07-29T21:33:51.550Z,8.20
2022-07-29T21:36:47.279Z,7.87
2022-07-29T21:39:07.248Z,8.60
2022-07-29T21:41:34.970Z,8.27
2022-07-29T21:44:02.082Z,8.90
2022-07-29T21:46:29.676Z,7.37
2022-07-29T21:48:56.920Z,7.57
2022-07-29T21:51:24.165Z,8.53
2022-07-29T21:53:53.115Z,9.30
2022-07-29T21:56:19.986Z,9.47
2022-07-29T21:58:49.795Z,9.90
2022-07-29T22:01:16.939Z,9.80
2022-07-29T22:03:44.307Z,9.93
2022-07-29T22:06:18.173Z,9.40
2022-07-29T22:08:45.813Z,9.70
2022-07-29T22:11:13.319Z,8.90
2022-07-29T22:13:40.074Z,10.03
2022-07-29T22:16:07.143Z,8.77
2022-07-29T22:18:33.873Z,8.73
2022-07-29T22:21:00.588Z,9.23
2022-07-29T22:23:27.891Z,9.30
2022-07-29T22:25:55.202Z,9.43
2022-07-29T22:28:21.915Z,8.20
2022-07-29T22:30:48.720Z,9.30
2022-07-29T22:33:17.425Z,9.47
2022-07-29T22:35:45.010Z,9.80
2022-07-29T22:38:15.652Z,9.30
2022-07-29T22:40:42.789Z,9.17
2022-07-29T22:43:10.722Z,9.30
2022-07-29T22:45:37.555Z,8.70
2022-07-29T22:48:05.310Z,9.60
2022-07-29T22:50:32.024Z,9.50
2022-07-29T22:52:59.116Z,9.57
2022-07-29T22:55:26.306Z,9.47
2022-07-29T22:57:53.007Z,9.40
2022-07-29T23:00:20.139Z,9.80
2022-07-29T23:02:47.700Z,9.70
2022-07-29T23:05:15.864Z,9.67
2022-07-29T23:07:43.143Z,8.23
2022-07-29T23:10:09.999Z,9.50
2022-07-29T23:12:37.187Z,8.70
2022-07-29T23:15:05.177Z,9.27
2022-07-29T23:17:36.073Z,9.00
2022-07-29T23:20:07.894Z,8.90
2022-07-29T23:22:35.754Z,9.37
2022-07-29T23:25:02.487Z,7.90
2022-07-29T23:27:29.238Z,8.90
2022-07-29T23:29:56.003Z,8.90
2022-07-29T23:32:22.736Z,8.27
2022-07-29T23:34:49.434Z,7.70
2022-07-29T23:37:16.138Z,7.93
2022-07-29T23:39:42.886Z,8.40
2022-07-29T23:42:10.041Z,7.90
2022-07-29T23:44:37.164Z,7.60
2022-07-29T23:47:04.340Z,7.53
2022-07-29T23:49:31.214Z,8.73
2022-07-29T23:51:58.344Z,7.60
2022-07-29T23:54:25.039Z,7.30
2022-07-29T23:56:51.769Z,7.40
2022-07-29T23:59:18.527Z,7.20
